createdAt,value
2022-10-19T00:02:06.032Z,16.33
2022-10-19T00:04:56.164Z,15.98
2022-10-19T00:07:45.504Z,15.15
2022-10-19T00:10:36.470Z,16.80
2022-10-19T00:13:25.530Z,16.92
2022-10-19T00:16:16.594Z,16.73
2022-10-19T00:19:08.649Z,15.00
2022-10-19T00:21:57.467Z,14.40
2022-10-19T00:24:46.690Z,14.50
2022-10-19T00:27:38.158Z,16.20
2022-10-19T00:30:27.411Z,14.60
2022-10-19T00:33:21.381Z,14.55
2022-10-19T00:36:22.623Z,11.70
2022-10-19T00:39:15.777Z,12.05
2022-10-19T00:42:04.698Z,12.30
2022-10-19T00:45:06.372Z,11.32
2022-10-19T00:47:54.974Z,13.07
2022-10-19T00:50:45.074Z,14.27
2022-10-19T00:53:34.150Z,14.02
2022-10-19T00:56:23.689Z,15.15
2022-10-19T00:59:16.215Z,16.13
2022-10-19T01:02:07.811Z,16.15
2022-10-19T01:04:57.461Z,15.90
2022-10-19T01:07:47.073Z,15.45
2022-10-19T01:10:46.386Z,14.80
2022-10-19T01:13:43.851Z,18.13
2022-10-19T01:16:41.776Z,17.60
2022-10-19T01:19:50.617Z,16.88
2022-10-19T01:22:56.650Z,17.33
2022-10-19T01:25:56.029Z,16.33
2022-10-19T01:28:55.533Z,16.35
2022-10-19T01:31:50.474Z,15.82
2022-10-19T01:34:47.531Z,14.98
2022-10-19T01:37:42.731Z,15.88
2022-10-19T01:40:40.402Z,15.65
2022-10-19T01:43:38.503Z,14.82
2022-10-19T01:46:31.911Z,14.55
2022-10-19T01:49:30.674Z,14.00
2022-10-19T01:52:22.774Z,13.98
2022-10-19T01:55:14.359Z,14.38
2022-10-19T01:58:09.843Z,13.25
2022-10-19T02:01:04.087Z,13.75
2022-10-19T02:03:54.970Z,13.07
2022-10-19T02:06:46.498Z,13.77
2022-10-19T02:09:35.660Z,12.95
2022-10-19T02:12:25.725Z,12.10
2022-10-19T02:15:18.850Z,11.38
2022-10-19T02:18:09.079Z,11.82
2022-10-19T02:20:59.011Z,11.15
2022-10-19T02:23:51.811Z,10.82
2022-10-19T02:26:43.692Z,9.85
2022-10-19T02:29:33.798Z,10.38
2022-10-19T02:32:22.830Z,10.20
2022-10-19T02:35:13.313Z,10.85
2022-10-19T02:38:04.993Z,9.95
2022-10-19T02:41:04.430Z,9.50
2022-10-19T02:43:57.576Z,8.52
2022-10-19T02:46:49.413Z,8.77
2022-10-19T02:49:40.259Z,10.25
2022-10-19T02:52:29.207Z,10.48
2022-10-19T02:55:18.585Z,8.68
2022-10-19T02:58:09.164Z,9.25
2022-10-19T03:00:58.382Z,8.43
2022-10-19T03:03:50.089Z,9.57
2022-10-19T03:06:39.056Z,8.63
2022-10-19T03:09:28.421Z,7.85
2022-10-19T03:12:18.196Z,8.00
2022-10-19T03:15:10.292Z,7.50
2022-10-19T03:17:59.481Z,8.32
2022-10-19T03:20:48.115Z,8.15
2022-10-19T03:23:37.684Z,7.72
2022-10-19T03:26:26.753Z,7.35
2022-10-19T03:29:16.445Z,7.15
2022-10-19T03:32:07.270Z,6.90
2022-10-19T03:34:56.435Z,7.32
2022-10-19T03:37:45.621Z,7.25
2022-10-19T03:40:34.731Z,7.57
2022-10-19T03:43:25.803Z,7.40
2022-10-19T03:46:15.131Z,8.55
2022-10-19T03:49:06.356Z,6.93
2022-10-19T03:51:55.433Z,7.32
2022-10-19T03:54:44.535Z,7.72
2022-10-19T03:57:33.921Z,7.30
2022-10-19T04:00:23.277Z,7.30
2022-10-19T04:03:12.626Z,6.90
2022-10-19T04:06:07.119Z,6.53
2022-10-19T04:08:56.673Z,6.90
2022-10-19T04:11:46.031Z,6.13
2022-10-19T04:14:52.518Z,7.05
2022-10-19T04:17:45.690Z,7.38
2022-10-19T04:20:42.291Z,6.93
2022-10-19T04:23:36.197Z,6.75
2022-10-19T04:26:25.436Z,6.55
2022-10-19T04:29:15.190Z,6.68
2022-10-19T04:32:04.594Z,6.57
2022-10-19T04:34:53.457Z,6.72
2022-10-19T04:37:42.767Z,6.90
2022-10-19T04:40:35.893Z,6.75
2022-10-19T04:43:24.809Z,6.57
2022-10-19T04:46:15.576Z,7.10
2022-10-19T04:49:06.822Z,6.82
2022-10-19T04:51:56.090Z,7.63
2022-10-19T04:54:45.131Z,6.88
2022-10-19T04:57:36.535Z,7.18
2022-10-19T05:00:25.991Z,7.05
2022-10-19T05:03:15.363Z,7.15
2022-10-19T05:06:04.569Z,6.57
2022-10-19T05:08:53.999Z,7.20
2022-10-19T05:11:43.420Z,6.93
2022-10-19T05:14:37.864Z,7.68
2022-10-19T05:17:33.281Z,7.47
2022-10-19T05:20:22.573Z,7.60
2022-10-19T05:23:12.142Z,7.97
2022-10-19T05:26:03.408Z,8.52
2022-10-19T05:28:56.408Z,7.95
2022-10-19T05:31:47.079Z,8.38
2022-10-19T05:34:36.142Z,7.88
2022-10-19T05:37:26.015Z,7.35
2022-10-19T05:40:15.682Z,8.30
2022-10-19T05:43:04.809Z,7.60
2022-10-19T05:45:54.128Z,7.30
2022-10-19T05:48:44.728Z,8.25
2022-10-19T05:51:34.117Z,7.93
2022-10-19T05:54:26.312Z,8.75
2022-10-19T05:57:18.670Z,8.27
2022-10-19T06:00:08.395Z,8.20
2022-10-19T06:02:59.129Z,8.02
2022-10-19T06:05:50.632Z,8.43
2022-10-19T06:08:40.072Z,9.23
2022-10-19T06:11:30.852Z,8.48
2022-10-19T06:14:20.051Z,8.80
2022-10-19T06:17:09.260Z,9.02
2022-10-19T06:19:58.341Z,8.73
2022-10-19T06:22:48.871Z,12.88
2022-10-19T06:25:38.171Z,9.70
2022-10-19T06:28:27.153Z,8.50
2022-10-19T06:31:16.415Z,9.70
2022-10-19T06:34:05.780Z,8.85
2022-10-19T06:36:55.253Z,9.93
2022-10-19T06:39:46.328Z,8.90
2022-10-19T06:42:35.410Z,9.15
2022-10-19T06:45:24.154Z,9.52
2022-10-19T06:48:13.131Z,9.73
2022-10-19T06:51:06.210Z,9.82
2022-10-19T06:53:57.242Z,9.88
2022-10-19T06:59:42.295Z,10.75
2022-10-19T07:02:31.112Z,11.18
2022-10-19T07:05:20.893Z,11.55
2022-10-19T07:08:10.177Z,10.55
2022-10-19T07:11:01.794Z,10.45
2022-10-19T07:13:53.887Z,8.98
2022-10-19T07:16:43.385Z,11.30
2022-10-19T07:19:33.456Z,10.88
2022-10-19T07:22:27.848Z,10.82
2022-10-19T07:25:17.653Z,9.82
2022-10-19T07:28:06.804Z,11.02
2022-10-19T07:30:57.724Z,10.27
2022-10-19T07:33:47.223Z,11.75
2022-10-19T07:36:38.192Z,10.50
2022-10-19T07:39:27.619Z,12.93
2022-10-19T07:42:17.157Z,11.13
2022-10-19T07:45:06.630Z,11.88
2022-10-19T07:47:57.463Z,13.60
2022-10-19T07:50:50.000Z,14.27
2022-10-19T07:53:41.041Z,15.20
2022-10-19T07:56:31.631Z,17.48
2022-10-19T07:59:21.037Z,16.40
2022-10-19T08:02:16.377Z,16.05
2022-10-19T08:05:11.594Z,18.42
2022-10-19T08:08:01.435Z,18.60
2022-10-19T08:10:50.928Z,19.40
2022-10-19T08:13:40.564Z,17.75
2022-10-19T08:16:33.117Z,17.20
2022-10-19T08:19:22.752Z,18.50
2022-10-19T08:22:13.231Z,18.48
2022-10-19T08:25:02.223Z,19.40
2022-10-19T08:27:51.322Z,17.48
2022-10-19T08:30:41.334Z,17.45
2022-10-19T08:33:30.335Z,19.13
2022-10-19T08:36:20.216Z,17.17
2022-10-19T08:39:12.901Z,18.65
2022-10-19T08:42:04.719Z,15.55
2022-10-19T08:45:14.462Z,18.52
2022-10-19T08:48:10.078Z,15.45
2022-10-19T08:51:00.239Z,16.48
2022-10-19T08:53:55.541Z,16.95
2022-10-19T08:56:51.677Z,15.13
2022-10-19T08:59:42.618Z,15.32
2022-10-19T09:02:43.325Z,15.32
2022-10-19T09:05:35.225Z,14.55
2022-10-19T09:08:24.155Z,19.15
2022-10-19T09:11:14.081Z,15.43
2022-10-19T09:14:07.242Z,14.60
2022-10-19T09:16:57.220Z,16.40
2022-10-19T09:19:46.895Z,20.02
2022-10-19T09:22:37.895Z,16.80
2022-10-19T09:25:29.271Z,17.98
2022-10-19T09:28:25.731Z,17.13
2022-10-19T09:31:27.119Z,17.20
2022-10-19T09:34:23.187Z,15.18
2022-10-19T09:37:21.176Z,18.98
2022-10-19T09:40:18.803Z,15.77
2022-10-19T09:43:19.683Z,18.40
2022-10-19T09:46:20.302Z,17.63
2022-10-19T09:49:11.217Z,16.27
2022-10-19T09:52:00.188Z,17.30
2022-10-19T09:54:52.697Z,15.85
2022-10-19T09:57:44.508Z,21.08
2022-10-19T10:00:37.914Z,20.70
2022-10-19T10:03:30.098Z,17.75
2022-10-19T10:06:23.519Z,18.40
2022-10-19T10:09:18.246Z,15.18
2022-10-19T10:12:09.031Z,15.88
2022-10-19T10:14:58.513Z,15.15
2022-10-19T10:17:50.082Z,14.90
2022-10-19T10:20:40.433Z,20.90
2022-10-19T10:23:34.649Z,18.42
2022-10-19T10:26:27.270Z,15.57
2022-10-19T10:29:21.342Z,16.67
2022-10-19T10:32:15.303Z,16.92
2022-10-19T10:35:07.582Z,15.85
2022-10-19T10:38:16.022Z,17.88
2022-10-19T10:41:12.996Z,19.38
2022-10-19T10:44:04.998Z,18.67
2022-10-19T10:46:57.472Z,15.38
2022-10-19T10:49:56.203Z,15.60
2022-10-19T10:52:59.400Z,21.27
2022-10-19T10:55:57.581Z,15.95
2022-10-19T10:58:52.178Z,18.45
2022-10-19T11:01:44.064Z,17.20
2022-10-19T11:04:38.841Z,17.48
2022-10-19T11:07:30.393Z,18.85
2022-10-19T11:10:24.309Z,17.15
2022-10-19T11:13:20.433Z,17.80
2022-10-19T11:16:14.947Z,19.20
2022-10-19T11:22:12.231Z,21.45
2022-10-19T11:25:21.029Z,18.58
2022-10-19T11:28:18.135Z,19.83
2022-10-19T11:31:15.641Z,22.92
2022-10-19T11:34:16.145Z,19.38
2022-10-19T11:37:14.267Z,17.85
2022-10-19T11:40:07.752Z,17.80
2022-10-19T11:43:05.161Z,21.63
2022-10-19T11:46:00.743Z,16.48
2022-10-19T11:49:16.728Z,20.98
2022-10-19T11:52:13.924Z,16.05
2022-10-19T11:55:09.645Z,15.25
2022-10-19T11:58:05.978Z,17.38
2022-10-19T12:00:57.264Z,16.55
2022-10-19T12:04:13.307Z,21.60
2022-10-19T12:07:08.760Z,16.95
2022-10-19T12:10:05.319Z,14.45
2022-10-19T12:12:59.133Z,21.95
2022-10-19T12:15:50.137Z,24.50
2022-10-19T12:18:41.288Z,22.85
2022-10-19T12:21:31.318Z,19.25
2022-10-19T12:24:23.720Z,14.23
2022-10-19T12:27:15.100Z,26.15
2022-10-19T12:30:06.346Z,17.65
2022-10-19T12:33:02.986Z,17.23
2022-10-19T12:36:08.722Z,16.75
2022-10-19T12:39:06.159Z,15.88
2022-10-19T12:42:01.662Z,19.90
2022-10-19T12:45:09.335Z,13.90
2022-10-19T12:48:18.929Z,18.05
2022-10-19T12:51:13.547Z,15.05
2022-10-19T12:54:11.038Z,12.00
2022-10-19T12:57:03.684Z,21.35
2022-10-19T13:00:02.667Z,21.50
2022-10-19T13:03:00.843Z,17.55
2022-10-19T13:05:58.709Z,21.27
2022-10-19T13:08:56.025Z,21.65
2022-10-19T13:12:21.679Z,15.90
2022-10-19T13:15:59.526Z,14.50
2022-10-19T13:19:23.782Z,12.82
2022-10-19T13:22:30.879Z,20.15
2022-10-19T13:25:28.238Z,18.45
2022-10-19T13:28:39.336Z,15.75
2022-10-19T13:31:30.665Z,15.98
2022-10-19T13:34:19.910Z,17.60
2022-10-19T13:37:18.476Z,14.85
2022-10-19T13:40:24.454Z,19.23
2022-10-19T13:43:20.487Z,15.80
2022-10-19T13:46:15.395Z,15.90
2022-10-19T13:49:27.769Z,15.52
2022-10-19T13:52:39.749Z,24.08
2022-10-19T13:55:55.905Z,22.67
2022-10-19T13:59:31.832Z,18.67
2022-10-19T14:02:47.540Z,21.45
2022-10-19T14:05:47.038Z,23.85
2022-10-19T14:09:11.971Z,15.68
2022-10-19T14:12:08.916Z,14.48
2022-10-19T14:14:58.453Z,18.52
2022-10-19T14:17:47.295Z,19.90
2022-10-19T14:20:38.527Z,21.13
2022-10-19T14:23:28.793Z,20.33
2022-10-19T14:26:26.823Z,17.73
2022-10-19T14:29:16.236Z,15.07
2022-10-19T14:32:05.997Z,13.52
2022-10-19T14:34:56.419Z,13.30
2022-10-19T14:37:46.224Z,16.77
2022-10-19T14:40:39.269Z,15.40
2022-10-19T14:43:31.416Z,12.98
2022-10-19T14:46:20.968Z,17.38
2022-10-19T14:49:13.880Z,15.15
2022-10-19T14:52:05.556Z,19.63
2022-10-19T14:54:55.995Z,20.63
2022-10-19T14:57:47.613Z,18.23
2022-10-19T15:00:38.551Z,15.27
2022-10-19T15:03:29.486Z,22.98
2022-10-19T15:06:21.461Z,15.23
2022-10-19T15:09:30.257Z,13.82
2022-10-19T15:12:30.187Z,15.02
2022-10-19T15:15:21.826Z,15.85
2022-10-19T15:18:43.525Z,15.15
2022-10-19T15:21:30.345Z,16.05
2022-10-19T15:24:26.715Z,17.88
2022-10-19T15:27:21.183Z,15.63
2022-10-19T15:30:25.727Z,16.38
2022-10-19T15:33:17.344Z,15.60
2022-10-19T15:36:08.723Z,19.88
2022-10-19T15:39:17.527Z,16.10
2022-10-19T15:42:24.696Z,16.25
2022-10-19T15:45:30.393Z,21.23
2022-10-19T15:48:31.759Z,16.88
2022-10-19T15:51:34.581Z,14.68
2022-10-19T15:54:24.325Z,14.00
2022-10-19T15:57:24.746Z,15.93
2022-10-19T16:00:15.251Z,14.63
2022-10-19T16:03:05.099Z,15.35
2022-10-19T16:05:56.331Z,12.38
2022-10-19T16:08:46.203Z,15.20
2022-10-19T16:11:36.521Z,19.65
2022-10-19T16:14:26.483Z,16.10
2022-10-19T16:17:17.071Z,17.52
2022-10-19T16:20:06.578Z,19.38
2022-10-19T16:22:57.504Z,17.48
2022-10-19T16:25:46.909Z,15.07
2022-10-19T16:28:36.005Z,14.88
2022-10-19T16:31:25.267Z,14.63
2022-10-19T16:34:14.328Z,14.73
2022-10-19T16:37:06.704Z,13.73
2022-10-19T16:39:58.358Z,18.85
2022-10-19T16:42:47.859Z,16.52
2022-10-19T16:45:37.031Z,14.10
2022-10-19T16:48:26.620Z,15.20
2022-10-19T16:51:24.008Z,22.60
2022-10-19T16:54:13.425Z,18.50
2022-10-19T16:57:08.800Z,15.05
2022-10-19T16:59:58.802Z,15.60
2022-10-19T17:02:48.289Z,14.77
2022-10-19T17:05:40.120Z,15.02
2022-10-19T17:08:36.705Z,16.33
2022-10-19T17:11:27.180Z,18.60
2022-10-19T17:14:17.931Z,17.13
2022-10-19T17:17:06.866Z,19.08
2022-10-19T17:19:55.614Z,16.15
2022-10-19T17:22:45.046Z,17.50
2022-10-19T17:25:33.847Z,16.33
2022-10-19T17:28:25.420Z,17.65
2022-10-19T17:31:17.931Z,16.85
2022-10-19T17:34:07.438Z,16.45
2022-10-19T17:36:57.103Z,15.30
2022-10-19T17:39:46.448Z,16.50
2022-10-19T17:42:36.731Z,17.23
2022-10-19T17:45:25.558Z,16.35
2022-10-19T17:48:16.124Z,15.00
2022-10-19T17:51:07.528Z,17.10
2022-10-19T17:54:00.566Z,17.25
2022-10-19T17:56:49.968Z,16.75
2022-10-19T17:59:52.173Z,16.00
2022-10-19T18:02:44.416Z,17.38
2022-10-19T18:05:35.303Z,17.63
2022-10-19T18:08:24.933Z,16.08
2022-10-19T18:11:16.585Z,18.92
2022-10-19T18:14:06.672Z,18.38
2022-10-19T18:16:55.957Z,17.60
2022-10-19T18:19:44.834Z,24.10
2022-10-19T18:22:35.311Z,23.08
2022-10-19T18:25:42.171Z,22.60
2022-10-19T18:28:34.415Z,20.15
2022-10-19T18:31:25.362Z,21.15
2022-10-19T18:34:15.714Z,22.23
2022-10-19T18:37:04.891Z,22.55
2022-10-19T18:39:55.518Z,22.45
2022-10-19T18:42:46.082Z,24.48
2022-10-19T18:45:35.607Z,24.02
2022-10-19T18:48:25.479Z,24.33
2022-10-19T18:51:15.830Z,25.45
2022-10-19T18:54:05.405Z,25.65
2022-10-19T18:56:55.922Z,23.65
2022-10-19T18:59:44.983Z,23.90
2022-10-19T19:02:46.037Z,23.88
2022-10-19T19:05:36.273Z,24.42
2022-10-19T19:08:25.882Z,26.58
2022-10-19T19:11:16.067Z,26.77
2022-10-19T19:14:08.382Z,25.25
2022-10-19T19:16:57.570Z,25.00
2022-10-19T19:19:46.826Z,24.45
2022-10-19T19:22:36.585Z,25.70
2022-10-19T19:25:26.252Z,24.65
2022-10-19T19:28:15.453Z,24.38
2022-10-19T19:31:06.564Z,25.42
2022-10-19T19:33:55.804Z,28.50
2022-10-19T19:36:48.324Z,26.73
2022-10-19T19:39:38.332Z,26.85
2022-10-19T19:42:28.011Z,26.92
2022-10-19T19:45:17.488Z,24.50
2022-10-19T19:48:10.001Z,28.70
2022-10-19T19:50:59.519Z,25.60
2022-10-19T19:53:49.569Z,25.27
2022-10-19T19:56:39.633Z,26.55
2022-10-19T19:59:30.406Z,28.38
2022-10-19T20:02:19.300Z,25.83
2022-10-19T20:05:12.599Z,28.10
2022-10-19T20:08:01.993Z,27.80
2022-10-19T20:10:51.214Z,25.52
2022-10-19T20:13:40.705Z,25.48
2022-10-19T20:16:31.948Z,24.05
2022-10-19T20:19:20.911Z,29.48
2022-10-19T20:22:11.987Z,29.83
2022-10-19T20:25:01.224Z,29.10
2022-10-19T20:27:50.679Z,29.35
2022-10-19T20:30:39.422Z,36.78
2022-10-19T20:33:29.417Z,34.90
2022-10-19T20:36:19.571Z,27.13
2022-10-19T20:39:10.081Z,30.55
2022-10-19T20:41:59.397Z,27.85
2022-10-19T20:44:48.705Z,28.85
2022-10-19T20:47:38.625Z,28.52
2022-10-19T20:50:27.869Z,27.45
2022-10-19T20:53:17.125Z,26.55
2022-10-19T20:56:09.463Z,26.45
2022-10-19T20:58:58.850Z,26.25
2022-10-19T21:01:51.093Z,26.15
2022-10-19T21:04:40.846Z,27.20
2022-10-19T21:07:29.931Z,28.15
2022-10-19T21:10:19.226Z,26.55
2022-10-19T21:13:09.972Z,26.25
2022-10-19T21:15:59.164Z,25.98
2022-10-19T21:18:49.202Z,26.02
2022-10-19T21:21:39.321Z,28.52
2022-10-19T21:24:30.954Z,28.58
2022-10-19T21:27:20.056Z,27.83
2022-10-19T21:30:11.700Z,25.98
2022-10-19T21:33:00.927Z,27.85
2022-10-19T21:38:40.017Z,23.80
2022-10-19T21:41:29.122Z,26.73
2022-10-19T21:44:19.318Z,25.23
2022-10-19T21:47:10.047Z,24.77
2022-10-19T21:49:59.327Z,24.92
2022-10-19T21:52:48.754Z,27.38
2022-10-19T21:55:38.866Z,25.25
2022-10-19T21:58:28.372Z,25.48
2022-10-19T22:01:18.081Z,28.10
2022-10-19T22:04:09.569Z,26.60
2022-10-19T22:07:00.892Z,26.48
2022-10-19T22:09:50.253Z,29.95
2022-10-19T22:12:39.426Z,26.40
2022-10-19T22:15:28.707Z,25.60
2022-10-19T22:18:18.008Z,27.85
2022-10-19T22:21:10.584Z,27.05
2022-10-19T22:24:00.443Z,28.13
2022-10-19T22:26:51.993Z,28.33
2022-10-19T22:29:41.178Z,25.88
2022-10-19T22:32:30.346Z,26.67
2022-10-19T22:35:19.146Z,25.85
2022-10-19T22:38:09.988Z,26.58
2022-10-19T22:41:35.130Z,25.27
2022-10-19T22:45:00.603Z,25.80
2022-10-19T22:48:25.851Z,27.75
2022-10-19T22:51:51.209Z,29.58
2022-10-19T22:54:41.794Z,26.10
2022-10-19T22:57:30.921Z,27.77
2022-10-19T23:00:20.683Z,28.20
2022-10-19T23:03:10.180Z,27.50
2022-10-19T23:05:59.023Z,26.88
2022-10-19T23:08:48.221Z,25.27
2022-10-19T23:11:39.266Z,33.65
2022-10-19T23:14:28.262Z,28.90
2022-10-19T23:17:17.423Z,27.88
2022-10-19T23:20:07.066Z,28.08
2022-10-19T23:22:56.782Z,32.25
2022-10-19T23:25:46.269Z,33.83
2022-10-19T23:28:38.250Z,31.83
2022-10-19T23:31:30.500Z,27.42
2022-10-19T23:34:19.758Z,27.58
2022-10-19T23:37:08.994Z,27.88
2022-10-19T23:39:58.203Z,26.10
2022-10-19T23:43:06.144Z,28.23
2022-10-19T23:45:57.210Z,28.08
2022-10-19T23:48:46.457Z,27.63
2022-10-19T23:51:36.332Z,27.13
2022-10-19T23:54:26.025Z,26.42
2022-10-19T23:57:15.614Z,26.52
